• Join FlightAware (Why Join?)
  • Login
  • US Flag 
08:46PM EDT


 

Airport Tracker/Info


-or-


 

Live Flight TrackerFlight Track Log ✈ RPA3247 ✈ 05-May-2013 ✈ KALB - KDCA

Flight Track Log - Related Links

Times and Time Zones

All times are in EDT time to prevent confusion due to time zone crossing. See the RPA3247 flight status page for this flight to view local times or setup timezone preferences in your user account.

Time Position Orientation Groundspeed Altitude Reporting Facility
EDT Latitude Longitude Course Direction KTS MPH feet Rate Location/Type
05:23PM 42.7278 -73.8081 118° Southeast 141 162 1,300  Level Boston Center
05:24PM 42.6897 -73.8553 222° Southwest 238 274 3,300 2,460 Climbing Boston Center
05:25PM 42.5122 -74.0123 171° South  Level Estimated
05:25PM 42.7136 -73.9406 291° West 266 306 6,800  Level Boston Center
05:26PM 42.4332 -74.0820 180° South  Level Estimated
05:26PM 42.7394 -74.0344 291° West 262 302 10,600  Level Boston Center
05:27PM 42.3540 -74.1516 172° South  Level Estimated
05:27PM 42.7275 -74.1417 261° West 254 292 13,800  Level Boston Center
05:28PM 42.3094 -74.0392 118° Southeast  Level FlightAware Approximate
05:28PM 42.6644 -74.1653 195° South 222 255 16,200  Level Boston Center
05:29PM 42.5922 -74.1153 153° Southeast 246 283 18,400 1,380 Climbing Boston Center
05:30PM 42.5158 -74.0681 156° South 316 364 19,000 900 Climbing Boston Center
05:31PM 42.4186 -74.0122 157° South 348 400 20,200 1,500 Climbing Boston Center
05:32PM 42.3175 -73.9450 154° Southeast 385 443 22,000 1,740 Climbing Boston Center
05:33PM 42.2100 -73.8781 155° Southeast 409 471 23,700 1,980 Climbing Boston Center
05:34PM 42.0997 -73.8614 174° South 417 480 26,000 1,020 Climbing Boston Center
05:36PM 41.9803 -73.9147 198° South 403 464 26,000  Level Boston Center
05:38PM 41.6322 -74.0572 197° South 483 556 26,000  Level New York Center
05:39PM 41.5122 -74.1067 197° South 483 556 26,000  Level New York Center
05:40PM 41.3858 -74.1583 197° South 483 556 26,000  Level New York Center
05:41PM 41.2636 -74.2075 197° South 494 568 26,000  Level New York Center
05:42PM 41.1392 -74.2589 197° South 499 574 26,000  Level New York Center
05:43PM 41.0108 -74.3072 196° South 493 567 26,000  Level New York Center
05:44PM 40.8842 -74.3611 198° South 487 560 26,000  Level New York Center
05:46PM 40.7526 -74.4448 237° Southwest  Level FlightAware Approximate
05:46PM 40.6858 -74.5750 237° Southwest 469 540 26,000  Level New York Center
05:47PM 40.6022 -74.7097 231° Southwest 469 540 26,000  Level New York Center
05:48PM 40.5144 -74.8411 229° Southwest 479 551 26,000 -660 Level New York Center
05:49PM 40.4244 -74.9694 227° Southwest 485 558 24,700 -1,380 Descending New York Center
05:50PM 40.3408 -75.0869 227° Southwest 473 544 23,300 -1,380 Descending New York Center
05:51PM 40.2594 -75.2044 228° Southwest 458 527 22,000 -660 Descending New York Center
05:52PM 40.1758 -75.3211 227° Southwest 445 512 22,000  Level New York Center
05:53PM 40.0922 -75.4325 226° Southwest 445 512 22,000  Level New York Center
05:54PM 40.0106 -75.5489 228° Southwest 445 512 22,000  Level New York Center
05:55PM 39.9286 -75.6653 227° Southwest 445 512 22,000 -840 Level New York Center
05:57PM 39.8352 -75.8153 234° Southwest  Level FlightAware Approximate
05:57PM 39.7967 -75.9208 234° Southwest 440 506 19,500  Level New York Center
05:58PM 39.7736 -76.0678 259° West 392 451 17,800 -1,980 Descending New York Center
06:00PM 39.6488 -76.2012 235° Southwest  Level Estimated
06:00PM 39.7375 -76.3106 235° Southwest 353 406 13,600  Level New York Center
06:02PM 39.7000 -76.5500 259° West 334 384 12,000 -540 Descending Potomac TRACON
06:03PM 39.6500 -76.6500 237° Southwest 329 379 12,000  Level Potomac TRACON
06:04PM 39.6000 -76.7500 237° Southwest 330 380 12,000  Level Potomac TRACON
06:05PM 39.5167 -76.7333 171° South 309 356 12,000  Level Potomac TRACON
06:06PM 39.4167 -76.7167 173° South 309 356 12,000 -420 Level Potomac TRACON
06:07PM 39.3333 -76.7000 171° South 292 336 11,200 -1,020 Descending Potomac TRACON
06:08PM 39.2667 -76.6833 169° South 278 320 10,000 -600 Descending Potomac TRACON
06:09PM 39.1833 -76.6667 171° South 275 316 10,000  Level Potomac TRACON
06:10PM 39.1333 -76.7167 218° Southwest 285 328 10,000 -780 Level Potomac TRACON
06:12PM 39.2988 -76.7284 357° North  Level FlightAware Approximate
06:12PM 39.0000 -76.8667 357° North 280 322 7,700  Level Potomac TRACON
06:13PM 38.9500 -76.9167 218° Southwest 271 312 6,000 -900 Descending Potomac TRACON
06:14PM 38.8833 -76.9500 201° Southwest 266 306 5,900 -480 Descending Potomac TRACON
06:15PM 38.8000 -76.9500 180° South 227 261 5,100 -960 Descending Potomac TRACON
06:16PM 38.7500 -76.9500 180° South 216 249 3,900 -1,500 Descending Potomac TRACON
06:17PM 38.7500 -77.0167 270° West 200 230 2,100 -1,440 Descending Potomac TRACON
06:18PM 38.7833 -77.0333 339° North 176 203 1,100 -900 Descending Potomac TRACON
06:19PM 38.8333 -77.0333 360° North 138 159 300 -840 Descending Potomac TRACON